DLH92 LGIR-LGSK
Flight info
| Callsign | DLH92 |
|---|---|
| Flight time | 0h 36m |
| Altitude | 30000 |
| Route | EPALO M749 MIL/N0405F240 M749 ATV B1 SIGFO |
| Aircraft | B738/M-SDE2E3FGHIRWXY/LB1 |
Departure
| Time | 2026-04-14 15:46 |
|---|---|
| Airport | Heraklion International Nikos Kazantzakis Airport (LGIR) |
Arrival
| Time | 2026-04-14 16:22 |
|---|---|
| Airport | Skiathos Island National Airport (LGSK) |
| Time | Latitude | Longitude | Altitude | Speed | Heading |
|---|---|---|---|---|---|
| 2026-04-14 14:23 | 35.33887 | 25.17078 | 85 ft | 0 kts | 153° |
| 2026-04-14 15:18 | 35.33894 | 25.17074 | 85 ft | 4 kts | 155° |
| 2026-04-14 15:18 | 35.33919 | 25.17065 | 88 ft | 4 kts | 180° |
| 2026-04-14 15:19 | 35.33945 | 25.17070 | 85 ft | 3 kts | 198° |
| 2026-04-14 15:19 | 35.33953 | 25.17073 | 85 ft | 0 kts | 198° |
| 2026-04-14 15:38 | 35.33948 | 25.17070 | 85 ft | 2 kts | 209° |
| 2026-04-14 15:38 | 35.33945 | 25.17050 | 87 ft | 3 kts | 266° |
| 2026-04-14 15:38 | 35.33945 | 25.17025 | 86 ft | 3 kts | 275° |
| 2026-04-14 15:38 | 35.33947 | 25.16997 | 86 ft | 4 kts | 274° |
| 2026-04-14 15:39 | 35.33947 | 25.16959 | 85 ft | 4 kts | 271° |
| 2026-04-14 15:39 | 35.33951 | 25.16922 | 85 ft | 4 kts | 282° |
| 2026-04-14 15:39 | 35.33954 | 25.16885 | 85 ft | 4 kts | 276° |
| 2026-04-14 15:39 | 35.33958 | 25.16849 | 89 ft | 4 kts | 276° |
| 2026-04-14 15:40 | 35.33961 | 25.16813 | 89 ft | 4 kts | 276° |
| 2026-04-14 15:40 | 35.33965 | 25.16779 | 87 ft | 0 kts | 285° |
| 2026-04-14 15:41 | 35.33965 | 25.16778 | 87 ft | 0 kts | 285° |
| 2026-04-14 15:41 | 35.33969 | 25.16764 | 86 ft | 4 kts | 289° |
| 2026-04-14 15:41 | 35.33986 | 25.16722 | 88 ft | 7 kts | 296° |
| 2026-04-14 15:42 | 35.34021 | 25.16658 | 87 ft | 11 kts | 304° |
| 2026-04-14 15:42 | 35.34063 | 25.16575 | 87 ft | 12 kts | 298° |
| 2026-04-14 15:42 | 35.34083 | 25.16478 | 87 ft | 12 kts | 281° |
| 2026-04-14 15:42 | 35.34091 | 25.16364 | 86 ft | 15 kts | 274° |
| 2026-04-14 15:43 | 35.34099 | 25.16245 | 89 ft | 12 kts | 278° |
| 2026-04-14 15:43 | 35.34129 | 25.16163 | 88 ft | 7 kts | 274° |
| 2026-04-14 15:43 | 35.34109 | 25.16133 | 90 ft | 3 kts | 189° |
| 2026-04-14 15:43 | 35.34094 | 25.16152 | 86 ft | 3 kts | 99° |
| 2026-04-14 15:44 | 35.34099 | 25.16181 | 87 ft | 4 kts | 79° |
| 2026-04-14 15:44 | 35.34100 | 25.16198 | 88 ft | 0 kts | 91° |
| 2026-04-14 15:45 | 35.34097 | 25.16268 | 88 ft | 26 kts | 94° |
| 2026-04-14 15:45 | 35.34077 | 25.16571 | 88 ft | 57 kts | 94° |
| 2026-04-14 15:45 | 35.34020 | 25.17401 | 87 ft | 136 kts | 96° |
| 2026-04-14 15:45 | 35.33932 | 25.18685 | 648 ft | 150 kts | 97° |
| 2026-04-14 15:46 | 35.33877 | 25.19986 | 1590 ft | 154 kts | 86° |
| 2026-04-14 15:46 | 35.34261 | 25.21194 | 2490 ft | 155 kts | 59° |
| 2026-04-14 15:46 | 35.35020 | 25.22120 | 3401 ft | 156 kts | 31° |
| 2026-04-14 15:46 | 35.36054 | 25.22495 | 4243 ft | 157 kts | 1° |
| 2026-04-14 15:47 | 35.37109 | 25.22211 | 5029 ft | 157 kts | 331° |
| 2026-04-14 15:47 | 35.37924 | 25.21341 | 5769 ft | 156 kts | 306° |
| 2026-04-14 15:47 | 35.38398 | 25.20162 | 6478 ft | 153 kts | 294° |
| 2026-04-14 15:47 | 35.38834 | 25.18955 | 6882 ft | 156 kts | 294° |
| 2026-04-14 15:48 | 35.39305 | 25.17657 | 7018 ft | 184 kts | 294° |
| 2026-04-14 15:48 | 35.40116 | 25.16304 | 7036 ft | 212 kts | 318° |
| 2026-04-14 15:48 | 35.41420 | 25.15271 | 7032 ft | 232 kts | 335° |
| 2026-04-14 15:48 | 35.43615 | 25.14205 | 7027 ft | 234 kts | 339° |
| 2026-04-14 15:49 | 35.49753 | 25.11398 | 6983 ft | 235 kts | 339° |
| 2026-04-14 15:49 | 35.55752 | 25.08563 | 6958 ft | 227 kts | 338° |
| 2026-04-14 15:49 | 35.61633 | 25.05760 | 7013 ft | 229 kts | 337° |
| 2026-04-14 15:49 | 35.67667 | 25.02881 | 7043 ft | 234 kts | 337° |
| 2026-04-14 15:50 | 35.71178 | 25.01205 | 6922 ft | 213 kts | 337° |
| 2026-04-14 15:50 | 35.72542 | 25.00559 | 6947 ft | 218 kts | 337° |
| 2026-04-14 15:50 | 35.75845 | 24.99010 | 7297 ft | 213 kts | 337° |
| 2026-04-14 15:50 | 35.77180 | 24.98389 | 8024 ft | 198 kts | 336° |
| 2026-04-14 15:51 | 35.78432 | 24.97797 | 8748 ft | 187 kts | 334° |
| 2026-04-14 15:51 | 35.79612 | 24.97237 | 9473 ft | 175 kts | 334° |
| 2026-04-14 15:51 | 35.80716 | 24.96722 | 10047 ft | 171 kts | 332° |
| 2026-04-14 15:51 | 35.81902 | 24.96160 | 10200 ft | 191 kts | 333° |
| 2026-04-14 15:52 | 35.83204 | 24.95542 | 10382 ft | 209 kts | 333° |
| 2026-04-14 15:52 | 35.84610 | 24.94878 | 10505 ft | 224 kts | 333° |
| 2026-04-14 15:52 | 35.86114 | 24.94170 | 10629 ft | 239 kts | 334° |
| 2026-04-14 15:52 | 35.89324 | 24.92663 | 11231 ft | 253 kts | 334° |
| 2026-04-14 15:53 | 35.93657 | 24.90630 | 12366 ft | 267 kts | 333° |
| 2026-04-14 15:53 | 35.99256 | 24.88007 | 14446 ft | 263 kts | 331° |
| 2026-04-14 15:53 | 36.04870 | 24.85355 | 16245 ft | 262 kts | 329° |
| 2026-04-14 15:53 | 36.08691 | 24.83541 | 17408 ft | 265 kts | 328° |
| 2026-04-14 15:54 | 36.22624 | 24.76904 | 21039 ft | 274 kts | 330° |
| 2026-04-14 15:54 | 36.29826 | 24.73470 | 22683 ft | 281 kts | 332° |
| 2026-04-14 15:54 | 36.37213 | 24.69946 | 24165 ft | 288 kts | 332° |
| 2026-04-14 15:55 | 36.44823 | 24.66314 | 25405 ft | 296 kts | 332° |
| 2026-04-14 15:55 | 36.49899 | 24.63881 | 26074 ft | 306 kts | 332° |
| 2026-04-14 15:55 | 36.51889 | 24.62926 | 26419 ft | 307 kts | 332° |
| 2026-04-14 15:55 | 36.53876 | 24.61976 | 26830 ft | 304 kts | 332° |
| 2026-04-14 15:56 | 36.55843 | 24.61034 | 27219 ft | 303 kts | 331° |
| 2026-04-14 15:56 | 36.57814 | 24.60087 | 27460 ft | 307 kts | 331° |
| 2026-04-14 15:56 | 36.59901 | 24.59077 | 27453 ft | 318 kts | 332° |
| 2026-04-14 15:56 | 36.63658 | 24.57260 | 27489 ft | 336 kts | 332° |
| 2026-04-14 15:57 | 36.66268 | 24.56006 | 27459 ft | 338 kts | 332° |
| 2026-04-14 15:57 | 36.69548 | 24.54441 | 27418 ft | 323 kts | 332° |
| 2026-04-14 15:57 | 36.71620 | 24.53447 | 27444 ft | 316 kts | 332° |
| 2026-04-14 15:57 | 36.73653 | 24.52463 | 27460 ft | 320 kts | 331° |
| 2026-04-14 15:58 | 36.75727 | 24.51422 | 27558 ft | 322 kts | 329° |
| 2026-04-14 15:58 | 36.77761 | 24.50245 | 27728 ft | 323 kts | 326° |
| 2026-04-14 15:58 | 36.79782 | 24.48981 | 27840 ft | 327 kts | 326° |
| 2026-04-14 15:58 | 36.81841 | 24.47665 | 27866 ft | 338 kts | 326° |
| 2026-04-14 15:59 | 36.84498 | 24.45969 | 27886 ft | 351 kts | 326° |
| 2026-04-14 15:59 | 36.88410 | 24.43494 | 27910 ft | 367 kts | 327° |
| 2026-04-14 15:59 | 36.90704 | 24.42066 | 27857 ft | 365 kts | 327° |
| 2026-04-14 15:59 | 36.96664 | 24.38391 | 27806 ft | 357 kts | 327° |
| 2026-04-14 16:00 | 36.98886 | 24.37017 | 27848 ft | 354 kts | 327° |
| 2026-04-14 16:00 | 37.02299 | 24.34898 | 27860 ft | 357 kts | 327° |
| 2026-04-14 16:00 | 37.09016 | 24.30710 | 27917 ft | 366 kts | 327° |
| 2026-04-14 16:00 | 37.11308 | 24.29282 | 27874 ft | 368 kts | 327° |
| 2026-04-14 16:01 | 37.18280 | 24.24942 | 27878 ft | 369 kts | 327° |
| 2026-04-14 16:01 | 37.27437 | 24.19228 | 27841 ft | 365 kts | 326° |
| 2026-04-14 16:01 | 37.34068 | 24.15080 | 27816 ft | 357 kts | 326° |
| 2026-04-14 16:01 | 37.36279 | 24.13694 | 27862 ft | 354 kts | 326° |
| 2026-04-14 16:02 | 37.43177 | 24.09347 | 27918 ft | 362 kts | 326° |
| 2026-04-14 16:02 | 37.46040 | 24.07543 | 27911 ft | 364 kts | 326° |
| 2026-04-14 16:02 | 37.48928 | 24.05726 | 27874 ft | 363 kts | 326° |
| 2026-04-14 16:02 | 37.57902 | 24.00077 | 27858 ft | 359 kts | 326° |
| 2026-04-14 16:03 | 37.66786 | 23.94460 | 27856 ft | 354 kts | 326° |
| 2026-04-14 16:03 | 37.75452 | 23.88958 | 27888 ft | 353 kts | 326° |
| 2026-04-14 16:03 | 37.81601 | 23.85046 | 27936 ft | 358 kts | 326° |
| 2026-04-14 16:03 | 37.83842 | 23.83620 | 27892 ft | 362 kts | 326° |
| 2026-04-14 16:04 | 37.87694 | 23.81199 | 27889 ft | 363 kts | 329° |
| 2026-04-14 16:04 | 37.90075 | 23.80049 | 27889 ft | 369 kts | 337° |
| 2026-04-14 16:04 | 37.92621 | 23.79422 | 27885 ft | 376 kts | 347° |
| 2026-04-14 16:04 | 37.95546 | 23.79113 | 27345 ft | 386 kts | 349° |
| 2026-04-14 16:05 | 37.98322 | 23.78882 | 26598 ft | 396 kts | 350° |
| 2026-04-14 16:05 | 38.01095 | 23.78609 | 25899 ft | 402 kts | 349° |
| 2026-04-14 16:05 | 38.03902 | 23.78266 | 25209 ft | 407 kts | 348° |
| 2026-04-14 16:05 | 38.06739 | 23.77875 | 24415 ft | 415 kts | 348° |
| 2026-04-14 16:06 | 38.09653 | 23.77452 | 23370 ft | 428 kts | 349° |
| 2026-04-14 16:06 | 38.12657 | 23.77015 | 22222 ft | 440 kts | 349° |
| 2026-04-14 16:06 | 38.15735 | 23.76572 | 21087 ft | 449 kts | 350° |
| 2026-04-14 16:06 | 38.18867 | 23.76126 | 20022 ft | 456 kts | 351° |
| 2026-04-14 16:07 | 38.22042 | 23.75669 | 19151 ft | 459 kts | 351° |
| 2026-04-14 16:07 | 38.24116 | 23.75370 | 19034 ft | 448 kts | 351° |
| 2026-04-14 16:07 | 38.28187 | 23.74783 | 18481 ft | 436 kts | 351° |
| 2026-04-14 16:07 | 38.31159 | 23.74352 | 17750 ft | 434 kts | 351° |
| 2026-04-14 16:08 | 38.34150 | 23.73917 | 17020 ft | 432 kts | 351° |
| 2026-04-14 16:08 | 38.37123 | 23.73484 | 16312 ft | 429 kts | 351° |
| 2026-04-14 16:08 | 38.40082 | 23.73054 | 15619 ft | 427 kts | 351° |
| 2026-04-14 16:08 | 38.43028 | 23.72625 | 14944 ft | 425 kts | 351° |
| 2026-04-14 16:09 | 38.45957 | 23.72198 | 14278 ft | 423 kts | 351° |
| 2026-04-14 16:09 | 38.48871 | 23.71773 | 13574 ft | 421 kts | 351° |
| 2026-04-14 16:09 | 38.51780 | 23.71348 | 12852 ft | 419 kts | 351° |
| 2026-04-14 16:09 | 38.54632 | 23.70933 | 12632 ft | 405 kts | 351° |
| 2026-04-14 16:10 | 38.57388 | 23.70531 | 12530 ft | 389 kts | 351° |
| 2026-04-14 16:10 | 38.60028 | 23.70146 | 12434 ft | 375 kts | 351° |
| 2026-04-14 16:10 | 38.62573 | 23.69773 | 12350 ft | 362 kts | 351° |
| 2026-04-14 16:10 | 38.65035 | 23.69413 | 12267 ft | 350 kts | 351° |
| 2026-04-14 16:11 | 38.67415 | 23.69063 | 12192 ft | 339 kts | 351° |
| 2026-04-14 16:11 | 38.69757 | 23.68718 | 11650 ft | 343 kts | 351° |
| 2026-04-14 16:11 | 38.72155 | 23.68363 | 11025 ft | 350 kts | 351° |
| 2026-04-14 16:11 | 38.74596 | 23.68002 | 10407 ft | 355 kts | 351° |
| 2026-04-14 16:12 | 38.77071 | 23.67638 | 9776 ft | 359 kts | 351° |
| 2026-04-14 16:12 | 38.79563 | 23.67272 | 9104 ft | 363 kts | 352° |
| 2026-04-14 16:12 | 38.82083 | 23.66902 | 8453 ft | 365 kts | 351° |
| 2026-04-14 16:12 | 38.84586 | 23.66534 | 7817 ft | 367 kts | 351° |
| 2026-04-14 16:13 | 38.87119 | 23.66162 | 7392 ft | 363 kts | 351° |
| 2026-04-14 16:13 | 38.89587 | 23.65798 | 7242 ft | 350 kts | 351° |
| 2026-04-14 16:13 | 38.91966 | 23.65448 | 7158 ft | 337 kts | 351° |
| 2026-04-14 16:13 | 38.94237 | 23.65112 | 7143 ft | 322 kts | 351° |
| 2026-04-14 16:14 | 38.96427 | 23.64789 | 7056 ft | 312 kts | 351° |
| 2026-04-14 16:14 | 38.98570 | 23.64473 | 6770 ft | 308 kts | 351° |
| 2026-04-14 16:14 | 39.00723 | 23.64154 | 6252 ft | 314 kts | 351° |
| 2026-04-14 16:14 | 39.02913 | 23.63831 | 5731 ft | 319 kts | 352° |
| 2026-04-14 16:15 | 39.05135 | 23.63503 | 5219 ft | 323 kts | 351° |
| 2026-04-14 16:15 | 39.07277 | 23.62724 | 4656 ft | 323 kts | 326° |
| 2026-04-14 16:15 | 39.08834 | 23.60706 | 4014 ft | 322 kts | 297° |
| 2026-04-14 16:15 | 39.09407 | 23.57932 | 3277 ft | 327 kts | 268° |
| 2026-04-14 16:16 | 39.08954 | 23.55056 | 2548 ft | 332 kts | 253° |
| 2026-04-14 16:16 | 39.08581 | 23.52126 | 1798 ft | 333 kts | 274° |
| 2026-04-14 16:16 | 39.09193 | 23.49403 | 1541 ft | 311 kts | 301° |
| 2026-04-14 16:16 | 39.10640 | 23.47541 | 1394 ft | 284 kts | 332° |
| 2026-04-14 16:17 | 39.12413 | 23.47009 | 1169 ft | 247 kts | 7° |
| 2026-04-14 16:17 | 39.13844 | 23.47802 | 949 ft | 209 kts | 44° |
| 2026-04-14 16:17 | 39.14437 | 23.49338 | 697 ft | 181 kts | 76° |
| 2026-04-14 16:17 | 39.14881 | 23.50695 | 584 ft | 147 kts | 41° |
| 2026-04-14 16:18 | 39.15739 | 23.51389 | 784 ft | 149 kts | 18° |
| 2026-04-14 16:18 | 39.16718 | 23.51802 | 1052 ft | 151 kts | 31° |
| 2026-04-14 16:18 | 39.17451 | 23.52889 | 1344 ft | 174 kts | 69° |
| 2026-04-14 16:18 | 39.17627 | 23.54433 | 1902 ft | 179 kts | 100° |
| 2026-04-14 16:19 | 39.17090 | 23.55856 | 2350 ft | 187 kts | 132° |
| 2026-04-14 16:19 | 39.15872 | 23.56385 | 2086 ft | 193 kts | 177° |
| 2026-04-14 16:19 | 39.14591 | 23.56309 | 2350 ft | 185 kts | 187° |
| 2026-04-14 16:19 | 39.13404 | 23.55623 | 2149 ft | 191 kts | 227° |
| 2026-04-14 16:20 | 39.12736 | 23.54153 | 2164 ft | 190 kts | 245° |
| 2026-04-14 16:20 | 39.12349 | 23.52632 | 2582 ft | 186 kts | 249° |
| 2026-04-14 16:20 | 39.12202 | 23.50851 | 2059 ft | 203 kts | 279° |
| 2026-04-14 16:20 | 39.12748 | 23.49289 | 1670 ft | 191 kts | 315° |
| 2026-04-14 16:21 | 39.13782 | 23.48402 | 1524 ft | 166 kts | 353° |
| 2026-04-14 16:21 | 39.14970 | 23.48724 | 784 ft | 192 kts | 28° |
| 2026-04-14 16:21 | 39.16104 | 23.49568 | 276 ft | 183 kts | 27° |
| 2026-04-14 16:21 | 39.17204 | 23.50136 | 49 ft | 160 kts | 18° |
| 2026-04-14 16:22 | 39.18100 | 23.50528 | 48 ft | 106 kts | 19° |
| 2026-04-14 16:22 | 39.18401 | 23.50641 | 58 ft | 9 kts | 358° |
| 2026-04-14 16:22 | 39.18441 | 23.50658 | 61 ft | 2 kts | 54° |
| 2026-04-14 16:22 | 39.18441 | 23.50672 | 55 ft | 2 kts | 105° |
| 2026-04-14 16:23 | 39.18429 | 23.50678 | 55 ft | 3 kts | 185° |
| 2026-04-14 16:23 | 39.18403 | 23.50668 | 57 ft | 6 kts | 198° |
| 2026-04-14 16:23 | 39.18339 | 23.50637 | 57 ft | 13 kts | 199° |
| 2026-04-14 16:23 | 39.18240 | 23.50593 | 52 ft | 16 kts | 198° |
| 2026-04-14 16:24 | 39.18128 | 23.50542 | 49 ft | 18 kts | 199° |
| 2026-04-14 16:24 | 39.18011 | 23.50490 | 46 ft | 17 kts | 196° |
| 2026-04-14 16:24 | 39.17940 | 23.50422 | 44 ft | 13 kts | 237° |
| 2026-04-14 16:24 | 39.17892 | 23.50327 | 43 ft | 13 kts | 211° |
| 2026-04-14 16:25 | 39.17831 | 23.50281 | 39 ft | 0 kts | 234° |
| 2026-04-14 16:25 | 39.17830 | 23.50277 | 40 ft | 2 kts | 248° |
| 2026-04-14 16:25 | 39.17839 | 23.50259 | 41 ft | 4 kts | 316° |
| 2026-04-14 16:25 | 39.17880 | 23.50224 | 42 ft | 8 kts | 327° |
| 2026-04-14 16:26 | 39.17888 | 23.50218 | 42 ft | 0 kts | 327° |